Warning: fopen(/var/www/metroair/shared/private/wxdata/metar/AVWX/metar_BGSF): failed to open stream: Permission denied in /var/www/metroair/shared/private/library/orig_library/lib_airport.php on line 346

Warning: fwrite() expects parameter 1 to be resource, boolean given in /var/www/metroair/shared/private/library/orig_library/lib_airport.php on line 347

Warning: fclose() expects parameter 1 to be resource, boolean given in /var/www/metroair/shared/private/library/orig_library/lib_airport.php on line 348

Warning: fopen(/var/www/metroair/shared/private/wxdata/TAF/AVWX/taf_BGSF): failed to open stream: Permission denied in /var/www/metroair/shared/private/library/orig_library/lib_airport.php on line 533

Warning: fwrite() expects parameter 1 to be resource, boolean given in /var/www/metroair/shared/private/library/orig_library/lib_airport.php on line 534

Warning: fclose() expects parameter 1 to be resource, boolean given in /var/www/metroair/shared/private/library/orig_library/lib_airport.php on line 535

MET7782 - Kangerlussuaq to Kansas City

Airbus A321-232
665MT - Sharklet Equipped
5 hrs 15 mins
2214 nm
Ferry - M

Departure

Departing from
Kangerlussuaq (SFJ)
Departure gate
Ramp
Scheduled Departure
GMT 1345
Local 1045
METAR BGSF 161150Z AUTO 06008KT 9999NDV BKN110/// M25/M29 Q0998
TAF TAF BGSF 161053Z 1612/1702 06008KT 9999 SCT140 TEMPO 1618/1702 BKN050
  • No charts available

Arrival

Arriving at
Kansas City (MCI)
Arrival gate
Scheduled Arrival
GMT 1900
Local 1300
METAR KMCI 161153Z 09009KT 3SM -RA BR OVC004 02/00 A2994 RMK AO2 SFC VIS 6 SLP144 P0015 60037 70053 T00170000 10017 20006 56029
TAF KMCI 161202Z 1612/1712 09009KT 6SM -RA BR OVC004 FM161500 14006KT 6SM BR VCSH OVC012 FM162100 18006KT P6SM -SHRA OVC008 FM170200 27006KT 3SM BR VCSH OVC003

Route Map

Planning Resources

GPS DIRECT TO KMCI
+SF 6655N 6360N RODBO N484C SEMTO N496C SSM J101 BAE J105 BDF J26 IRK.BSQ4
6655N6560N FEDDY GW PELEE YXZ SAW DLL DBQ IOW IRK.BQS4
BGSF DIRECT FEDDY N518C YQT J533 DLH J21 GEP J25 KMCI
BGSF TO KMCI DIRECT
Route:
OFP Layout:
Units:
Detailed Navlog:
ETOPS Planning:
Plan Stepclimbs:
Runway Analysis:
Include NOTAMS:
FIR NOTAMS:
Flight Maps:

Popularity

Hub Current Bids PiReps this month Total PiReps
KMCI 1 1 1
KLAX 0 0 0
KBOS 0 0 0